Latest Weather Observations for Bulman

IDD60801

Issued at 2:31 pm CST Wednesday 1 June 2016 (issued every 30 minutes, with the page automatically refreshed every 10 minutes)

About weather observations | Map of weather stations | Latest weather observations for NT | Other Formats
Station Details ID: 014627 Name: BULMAN Lat: -13.67 Lon: 134.34 Height: 103.4 m
Data from the previous 72 hours. | See also: Recent months at Bulman
Date/Time
CST
Temp
°C
App
Temp
°C
Dew
Point
Rel
Hum
%
Delta-T
°C
Wind Press
QNH
hPa
Press
MSL
hPa
Rain
since 9 am
mm
Dir
 
Spd
km/h
Gust
km/h
Spd
kts
Gust
kts
01/02:30pm 33.7 33.1 16.6 36 10.9 E 15 26 8 14 1012.2 1011.8 0.0
01/02:00pm 32.8 32.9 16.6 38 10.3 ESE 11 22 6 12 1012.6 1012.2 0.0
01/01:30pm 33.2 33.1 17.0 38 10.4 SSE 13 24 7 13 1013.1 1012.7 0.0
01/01:00pm 33.4 33.0 17.1 37 10.4 ESE 15 24 8 13 1013.9 1013.5 0.0
01/12:30pm 32.6 32.2 18.0 41 9.4 E 17 26 9 14 1014.5 1014.1 0.0
01/12:00pm 32.0 32.2 18.6 45 8.7 E 15 26 8 14 1015.1 1014.7 0.0
01/11:30am 31.1 32.8 20.1 52 7.3 ESE 11 20 6 11 1015.4 1015.0 0.0
01/11:00am 30.4 32.7 20.6 55 6.5 NE 9 17 5 9 1015.8 1015.4 0.0
01/10:30am 28.8 29.4 20.3 60 5.6 ESE 17 28 9 15 1016.2 1015.8 0.0
01/10:00am 29.0 31.0 21.5 64 5.0 ENE 13 20 7 11 1016.4 1015.9 0.0
01/09:30am 27.4 29.6 21.9 72 3.7 ESE 13 19 7 10 1016.5 1016.0 0.0
01/09:00am 26.8 29.7 21.8 74 3.4 ENE 9 17 5 9 1016.5 1015.9 0.0
01/08:30am 25.7 29.0 21.4 77 2.9 NNE 6 9 3 5 1016.2 1015.7 0.0
01/08:00am 23.7 28.0 21.2 86 1.6 CALM 0 0 0 0 1016.1 1015.6 0.0
01/07:30am 21.3 25.3 20.6 96 0.5 CALM 0 0 0 0 1015.6 1015.1 0.0
01/07:00am 20.3 23.7 19.3 94 0.6 CALM 0 0 0 0 1015.4 1014.9 0.0
01/06:30am 20.5 23.9 19.3 93 0.8 CALM 0 0 0 0 1015.1 1014.6 0.0
01/06:00am 21.1 24.7 19.7 92 0.9 CALM 0 0 0 0 1015.0 1014.5 0.0
01/05:30am 21.5 25.3 20.1 92 0.9 CALM 0 0 0 0 1014.8 1014.3 0.0
01/05:00am 21.6 25.4 20.2 92 0.9 CALM 0 0 0 0 1014.7 1014.2 0.0
01/04:30am 22.0 26.0 20.5 91 1.0 CALM 0 0 0 0 1014.5 1014.0 0.0
01/04:00am 22.4 25.5 20.3 88 1.4 NNE 4 7 2 4 1014.3 1013.8 0.0
01/03:30am 22.9 25.7 20.4 86 1.6 N 6 7 3 4 1014.5 1014.0 0.0
01/03:00am 23.9 26.8 21.0 84 1.9 N 7 9 4 5 1014.5 1014.0 0.0
01/02:30am 24.1 27.0 21.0 83 2.0 E 7 11 4 6 1014.7 1014.2 0.0
01/02:00am 24.3 26.9 21.2 83 2.0 E 9 13 5 7 1014.9 1014.4 0.0
01/01:30am 24.2 27.2 21.3 84 1.9 N 7 11 4 6 1015.1 1014.6 0.0
01/01:00am 24.1 27.1 21.2 84 1.9 ENE 7 9 4 5 1015.2 1014.7 0.0
01/12:30am 23.8 26.7 20.7 83 2.0 NNE 6 7 3 4 1015.1 1014.6 0.0
01/12:00am 24.3 28.0 20.8 81 2.3 ESE 2 9 1 5 1015.1 1014.6 0.0
 
Date/Time
CST
Temp
°C
App
Temp
°C
Dew
Point
Rel
Hum
%
Delta-T
°C
Wind Press
QNH
hPa
Press
MSL
hPa
Rain
since 9 am
mm
Dir
 
Spd
km/h
Gust
km/h
Spd
kts
Gust
kts
31/11:30pm 24.9 28.1 20.6 77 2.8 ESE 4 7 2 4 1015.2 1014.7 0.0
31/11:00pm 25.8 28.8 20.8 74 3.3 SE 6 11 3 6 1015.3 1014.8 0.0
31/10:30pm 26.5 29.0 21.0 72 3.6 E 9 17 5 9 1015.2 1014.7 0.0
31/10:00pm 26.9 29.4 21.0 70 3.9 ESE 9 17 5 9 1015.3 1014.8 0.0
31/09:30pm 27.4 29.5 21.0 68 4.3 E 11 19 6 10 1015.1 1014.6 0.0
31/09:00pm 27.7 29.9 20.3 64 4.9 ESE 9 13 5 7 1015.0 1014.5 0.0
31/08:30pm 28.1 29.9 19.6 60 5.5 ESE 9 15 5 8 1014.6 1014.1 0.0
31/08:00pm 28.6 30.6 18.7 55 6.4 ESE 6 9 3 5 1014.1 1013.6 0.0
31/07:30pm 29.4 30.7 18.5 52 7.0 ESE 9 15 5 8 1013.6 1013.1 0.0
31/07:00pm 29.8 31.0 18.3 50 7.4 E 9 17 5 9 1013.1 1012.6 0.0
31/06:30pm 30.1 31.2 18.8 50 7.3 E 11 17 6 9 1012.8 1012.3 0.0
31/06:00pm 30.9 31.6 17.9 45 8.4 E 11 20 6 11 1012.5 1011.9 0.0
31/05:30pm 31.8 31.3 16.9 40 9.5 ESE 15 20 8 11 1012.2 1011.6 0.0
31/05:00pm 32.7 32.9 15.7 36 10.6 E 9 15 5 8 1011.9 1011.3 0.0
31/04:30pm 33.0 31.6 15.5 35 10.9 SE 17 24 9 13 1011.8 1011.2 0.0
31/04:00pm 33.9 33.5 16.3 35 11.2 ESE 13 24 7 13 1011.7 1011.1 0.0
31/03:30pm 32.8 33.2 16.2 37 10.5 ESE 9 15 5 8 1011.8 1011.2 0.0
31/03:00pm 33.5 33.2 16.4 36 10.9 ESE 13 20 7 11 1011.9 1011.3 0.0
31/02:30pm 34.5 34.3 16.8 34 11.3 E 13 22 7 12 1012.1 1011.5 0.0
31/02:00pm 33.7 32.5 16.1 34 11.1 ENE 17 30 9 16 1012.2 1011.6 0.0
31/01:30pm 33.8 33.0 17.1 37 10.7 NE 17 26 9 14 1012.6 1012.0 0.0
31/01:00pm 33.9 34.1 17.6 38 10.5 ENE 13 22 7 12 1013.4 1012.9 0.0
31/12:30pm 33.0 33.2 17.6 40 9.9 E 13 20 7 11 1014.1 1013.6 0.0
31/12:00pm 32.9 33.2 17.9 41 9.7 ENE 13 24 7 13 1014.7 1014.2 0.0
31/11:30am 31.9 32.4 17.4 42 9.3 NE 11 20 6 11 1015.2 1014.7 0.0
31/11:00am 31.7 32.3 18.7 46 8.5 ENE 13 19 7 10 1015.5 1015.0 0.0
31/10:30am 30.6 31.1 19.3 51 7.4 ENE 15 32 8 17 1015.8 1015.3 0.0
31/10:00am 29.5 31.8 20.6 58 5.9 ENE 9 15 5 8 1016.2 1015.7 0.0
31/09:30am 27.7 30.5 21.5 69 4.1 ESE 9 15 5 8 1016.4 1015.8 0.0
31/09:00am 26.8 29.7 21.8 74 3.4 ESE 9 15 5 8 1016.4 1015.8 0.0
31/08:30am 25.7 30.2 22.2 81 2.4 E 2 9 1 5 1016.1 1015.6 0.0
31/08:00am 23.0 27.2 20.9 88 1.4 CALM 0 0 0 0 1015.8 1015.3 0.0
31/07:30am 21.0 24.8 20.2 95 0.5 CALM 0 0 0 0 1015.5 1015.0 0.0
31/07:00am 20.0 23.3 19.2 95 0.5 CALM 0 0 0 0 1015.5 1015.0 0.0
31/06:30am 20.0 23.3 19.0 94 0.6 CALM 0 0 0 0 1015.1 1014.6 0.0
31/06:00am 20.1 23.4 19.1 94 0.6 CALM 0 0 0 0 1015.0 1014.5 0.0
31/05:30am 20.4 23.8 19.4 94 0.6 CALM 0 0 0 0 1014.9 1014.4 0.0
31/05:00am 20.7 24.3 19.7 94 0.6 CALM 0 0 0 0 1014.8 1014.3 0.0
31/04:30am 20.7 24.3 19.7 94 0.6 CALM 0 0 0 0 1014.6 1014.1 0.0
31/04:00am 20.9 24.5 19.7 93 0.8 CALM 0 0 0 0 1014.6 1014.1 0.0
31/03:30am 21.4 25.1 20.0 92 0.9 CALM 0 0 0 0 1014.4 1013.9 0.0
31/03:00am 21.7 25.6 20.3 92 0.9 CALM 0 0 0 0 1014.5 1014.0 0.0
31/02:30am 21.8 24.7 20.6 93 0.8 NNE 6 7 3 4 1014.5 1014.0 0.0
31/02:00am 22.0 26.0 20.6 92 0.9 CALM 0 0 0 0 1014.6 1014.1 0.0
31/01:30am 22.3 26.3 20.6 90 1.1 CALM 0 0 0 0 1014.6 1014.1 0.0
31/01:00am 22.6 26.6 20.5 88 1.4 CALM 0 0 0 0 1014.9 1014.4 0.0
31/12:30am 23.2 27.3 20.7 86 1.6 CALM 0 0 0 0 1015.0 1014.5 0.0
31/12:00am 23.7 27.7 20.6 83 2.0 CALM 0 0 0 0 1015.1 1014.6 0.0
 
Date/Time
CST
Temp
°C
App
Temp
°C
Dew
Point
Rel
Hum
%
Delta-T
°C
Wind Press
QNH
hPa
Press
MSL
hPa
Rain
since 9 am
mm
Dir
 
Spd
km/h
Gust
km/h
Spd
kts
Gust
kts
30/11:30pm 24.7 28.9 21.0 80 2.4 CALM 0 0 0 0 1015.3 1014.8 0.0
30/11:00pm 25.3 28.9 21.2 78 2.7 ESE 4 7 2 4 1015.4 1014.9 0.0
30/10:30pm 25.7 28.8 21.4 77 2.9 ESE 7 9 4 5 1015.4 1014.9 0.0
30/10:00pm 26.1 29.0 21.1 74 3.3 SE 7 9 4 5 1015.3 1014.8 0.0
30/09:30pm 26.4 29.1 20.7 71 3.8 ESE 7 13 4 7 1015.1 1014.6 0.0
30/09:00pm 26.9 29.2 20.7 69 4.1 ESE 9 11 5 6 1014.9 1014.4 0.0
30/08:30pm 27.5 29.8 20.6 66 4.6 E 9 17 5 9 1014.6 1014.1 0.0
30/08:00pm 28.2 29.7 20.5 63 5.1 ESE 13 24 7 13 1014.1 1013.6 0.0
30/07:30pm 29.6 30.4 19.9 56 6.4 E 15 30 8 16 1013.5 1013.0 0.0
30/07:00pm 30.5 31.9 17.9 47 8.1 E 7 13 4 7 1012.9 1012.4 0.0
30/06:30pm 30.8 32.1 17.5 45 8.5 E 7 13 4 7 1012.4 1011.8 0.0
30/06:00pm 31.6 32.2 16.7 40 9.4 E 9 15 5 8 1011.9 1011.3 0.0
30/05:30pm 32.6 32.8 16.8 38 10.1 ENE 11 17 6 9 1011.5 1010.9 0.0
30/05:00pm 33.1 33.9 17.3 39 10.1 ENE 9 17 5 9 1011.2 1010.6 0.0
30/04:30pm 33.3 32.8 15.8 35 11.0 ESE 13 22 7 12 1011.0 1010.4 0.0
30/04:00pm 34.4 34.6 15.8 33 11.7 NE 9 20 5 11 1010.8 1010.2 0.0
30/03:30pm 34.0 33.7 15.5 33 11.6 SE 11 22 6 12 1010.9 1010.3 0.0
30/03:00pm 33.7 32.9 15.2 33 11.6 E 13 20 7 11 1011.0 1010.4 0.0
30/02:30pm 33.8 33.9 17.5 38 10.5 E 13 24 7 13 1011.2 1010.6 0.0
30/02:00pm 33.0 32.6 18.0 41 9.7 ESE 17 26 9 14 1011.5 1010.9 0.0
30/01:30pm 32.8 32.7 17.8 40 9.7 ENE 15 22 8 12 1012.1 1011.5 0.0
30/01:00pm 33.9 34.8 19.2 42 9.7 ESE 13 24 7 13 1012.7 1012.2 0.0
30/12:30pm 33.0 34.0 19.5 45 8.9 ESE 13 24 7 13 1013.4 1012.9 0.0
30/12:00pm 32.0 32.4 18.9 45 8.6 SE 15 26 8 14 1014.0 1013.5 0.0
30/11:30am 31.8 33.1 20.1 50 7.8 E 13 22 7 12 1014.6 1014.1 0.0
30/11:00am 30.8 32.8 21.6 58 6.2 E 13 19 7 10 1015.1 1014.6 0.0
30/10:30am 30.3 33.2 22.5 63 5.3 NE 11 19 6 10 1015.4 1014.9 0.0
30/10:00am 28.6 31.6 22.6 70 4.1 NE 11 20 6 11 1015.9 1015.4 0.0
30/09:30am 28.2 31.2 22.7 72 3.7 E 11 17 6 9 1015.8 1015.3 0.0
30/09:00am 27.5 30.7 22.4 73 3.5 ENE 9 19 5 10 1015.6 1015.1 0.0
30/08:30am 26.0 29.2 22.3 80 2.5 SE 9 15 5 8 1015.5 1015.0 0.0
30/08:00am 24.6 28.7 23.0 91 1.1 SE 6 9 3 5 1015.3 1014.8 0.0
30/07:30am 21.4 25.4 20.6 95 0.5 CALM 0 0 0 0 1015.0 1014.5 0.0
30/07:00am 20.6 24.1 19.6 94 0.6 CALM 0 0 0 0 1014.6 1014.1 0.0
30/06:30am 20.9 24.5 19.7 93 0.8 CALM 0 0 0 0 1014.2 1013.7 0.0
30/06:00am 21.2 25.0 20.2 94 0.6 CALM 0 0 0 0 1014.0 1013.5 0.0
30/05:30am 21.2 25.0 20.2 94 0.6 CALM 0 0 0 0 1013.8 1013.3 0.0
30/05:00am 21.4 25.3 20.4 94 0.6 CALM 0 0 0 0 1013.6 1013.1 0.0
30/04:30am 21.5 25.4 20.3 93 0.8 CALM 0 0 0 0 1013.5 1013.0 0.0
30/04:00am 21.7 25.6 20.3 92 0.9 CALM 0 0 0 0 1013.5 1013.0 0.0
30/03:30am 21.9 25.8 20.4 91 1.0 CALM 0 0 0 0 1013.7 1013.2 0.0
30/03:00am 22.2 26.2 20.5 90 1.1 CALM 0 0 0 0 1013.8 1013.3 0.0
30/02:30am 22.5 26.5 20.6 89 1.2 CALM 0 0 0 0 1014.1 1013.6 0.0
30/02:00am 22.8 26.9 20.7 88 1.4 CALM 0 0 0 0 1014.4 1013.9 0.0
30/01:30am 23.1 27.1 20.6 86 1.6 CALM 0 0 0 0 1014.5 1014.0 0.0
30/01:00am 23.6 27.7 20.7 84 1.9 CALM 0 0 0 0 1014.6 1014.1 0.0
30/12:30am 24.0 27.6 20.5 81 2.3 SE 2 6 1 3 1014.7 1014.2 0.0
30/12:00am 24.5 27.3 20.4 78 2.7 SE 6 9 3 5 1014.9 1014.4 0.0
 
Date/Time
CST
Temp
°C
App
Temp
°C
Dew
Point
Rel
Hum
%
Delta-T
°C
Wind Press
QNH
hPa
Press
MSL
hPa
Rain
since 9 am
mm
Dir
 
Spd
km/h
Gust
km/h
Spd
kts
Gust
kts
29/11:30pm 25.5 28.7 20.5 74 3.3 ESE 4 7 2 4 1015.0 1014.5 0.0
29/11:00pm 26.0 28.7 20.6 72 3.6 ESE 7 13 4 7 1015.1 1014.6 0.0
29/10:30pm 26.2 28.8 20.1 69 4.0 ESE 6 11 3 6 1014.9 1014.4 0.0
29/10:00pm 26.6 29.0 19.7 66 4.5 E 6 11 3 6 1014.7 1014.2 0.0
29/09:30pm 26.9 29.1 19.5 64 4.8 ESE 7 13 4 7 1014.4 1013.9 0.0
29/09:00pm 27.0 29.5 19.9 65 4.6 SE 6 9 3 5 1014.1 1013.6 0.0
29/08:30pm 27.1 30.1 20.0 65 4.6 SE 4 6 2 3 1013.9 1013.4 0.0
29/08:00pm 27.9 30.6 20.2 63 5.1 E 6 11 3 6 1013.5 1013.0 0.0
29/07:30pm 27.3 31.3 20.6 67 4.4 CALM 0 0 0 0 1013.4 1012.9 0.0
29/07:00pm 28.1 32.0 20.4 63 5.1 CALM 0 0 0 0 1013.1 1012.6 0.0
29/06:30pm 28.9 32.4 20.4 60 5.6 SSE 2 7 1 4 1012.8 1012.3 0.0
29/06:00pm 29.4 31.8 20.0 57 6.2 SE 7 15 4 8 1012.4 1011.8 0.0
29/05:30pm 29.7 30.8 19.7 55 6.6 ESE 13 19 7 10 1012.0 1011.4 0.0
29/05:00pm 29.5 30.7 19.8 56 6.4 ESE 13 26 7 14 1012.0 1011.4 0.0
29/04:30pm 33.6 34.1 16.5 36 10.9 ENE 9 32 5 17 1011.7 1011.1 0.0
29/04:00pm 34.2 34.9 16.1 34 11.5 NE 7 15 4 8 1011.1 1010.5 0.0
29/03:30pm 34.4 34.6 15.8 33 11.7 SSE 9 15 5 8 1011.2 1010.6 0.0
29/03:00pm 35.1 35.4 15.9 31 12.2 ENE 9 13 5 7 1011.3 1010.7 0.0

Other Formats:

Comma delimited format used in spreadsheet applications
http://www.bom.gov.au/fwo/IDD60801/IDD60801.94143.axf

JavaScript Object Notation format (JSON) in row-major order
http://www.bom.gov.au/fwo/IDD60801/IDD60801.94143.json